Time;durP1;ratioP1;P1;durP2;ratioP2;P2;SDS_P1;SDS_P2;PMS_P1;PMS_P2;Temp;Humidity;BMP_temperature;BMP_pressure;BME280_temperature;BME280_humidity;BME280_pressure;Samples;Min_cycle;Max_cycle;Signal;HPM_P1;HPM_P2
2023/06/11 00:00:09;;;;;;;10.90;8.35;;;23.20;1.00;;;;;;5119066;28;20043;-69
2023/06/11 00:02:35;;;;;;;8.60;7.60;;;23.20;99.90;;;;;;5102603;28;20356;-69
2023/06/11 00:05:07;;;;;;;9.23;8.30;;;23.10;99.90;;;;;;5119781;28;20126;-69
2023/06/11 00:07:34;;;;;;;9.50;8.48;;;23.10;99.90;;;;;;5119559;28;20097;-69
2023/06/11 00:10:01;;;;;;;9.35;8.55;;;23.00;1.00;;;;;;5118977;28;20042;-70
2023/06/11 00:12:27;;;;;;;9.13;8.27;;;23.00;1.00;;;;;;5119529;28;20348;-70
2023/06/11 00:14:53;;;;;;;10.20;8.20;;;23.00;1.00;;;;;;5119397;28;20107;-70
2023/06/11 00:17:19;;;;;;;14.18;8.60;;;22.90;1.00;;;;;;5119431;28;20044;-68
2023/06/11 00:19:47;;;;;;;9.15;8.25;;;22.90;1.00;;;;;;5119450;28;20344;-68
2023/06/11 00:22:14;;;;;;;10.30;8.00;;;22.90;1.00;;;;;;5119280;28;20039;-69
2023/06/11 00:24:41;;;;;;;11.43;8.25;;;22.80;1.00;;;;;;5119364;28;20106;-69
2023/06/11 00:27:07;;;;;;;9.10;7.90;;;22.80;1.00;;;;;;5119189;28;20027;-69
2023/06/11 00:29:33;;;;;;;10.95;7.80;;;22.80;1.00;;;;;;5118426;28;20035;-69
2023/06/11 00:31:59;;;;;;;9.43;8.15;;;22.80;3.70;;;;;;5101276;28;20466;-69
2023/06/11 00:34:25;;;;;;;9.60;8.68;;;22.90;1.00;;;;;;5119428;28;20272;-69
2023/06/11 00:36:52;;;;;;;12.50;9.40;;;22.90;1.00;;;;;;5119613;28;20459;-69
2023/06/11 00:39:18;;;;;;;11.63;10.43;;;22.80;99.90;;;;;;5118134;28;20023;-69
2023/06/11 00:41:48;;;;;;;13.70;10.90;;;22.80;99.90;;;;;;5119020;28;20019;-69
2023/06/11 00:44:18;;;;;;;9.82;8.68;;;22.70;99.90;;;;;;5118972;27;20322;-70
2023/06/11 00:46:47;;;;;;;12.00;8.45;;;22.60;99.90;;;;;;5118078;28;20049;-71
2023/06/11 00:49:17;;;;;;;11.95;8.35;;;22.60;99.90;;;;;;5118678;28;20031;-70
2023/06/11 00:51:46;;;;;;;8.93;8.00;;;22.60;99.90;;;;;;5118890;27;20031;-70
2023/06/11 00:54:16;;;;;;;10.85;8.18;;;22.50;99.90;;;;;;5118918;28;20382;-70
2023/06/11 00:56:43;;;;;;;14.13;8.95;;;22.50;99.90;;;;;;5118321;28;20444;-70
2023/06/11 00:59:10;;;;;;;10.95;8.10;;;22.50;99.90;;;;;;5118584;28;20130;-70
2023/06/11 01:01:59;;;;;;;8.57;7.68;;;22.40;99.90;;;;;;5119154;28;20085;-70
2023/06/11 01:04:29;;;;;;;11.30;7.78;;;22.40;1.00;;;;;;5118638;27;20326;-70
2023/06/11 01:06:59;;;;;;;10.35;8.00;;;22.30;1.00;;;;;;5117477;28;20109;-70
2023/06/11 01:09:29;;;;;;;9.57;7.85;;;22.30;1.00;;;;;;5117190;28;20031;-70
2023/06/11 01:11:55;;;;;;;8.40;7.70;;;22.30;1.00;;;;;;5118449;28;20043;-70
2023/06/11 01:14:22;;;;;;;9.98;7.80;;;22.20;1.00;;;;;;5117448;28;20027;-70
2023/06/11 01:17:04;;;;;;;8.85;7.95;;;22.20;1.00;;;;;;5118287;28;20115;-70
2023/06/11 01:19:52;;;;;;;9.52;7.70;;;22.20;1.00;;;;;;5100475;28;20107;-70
2023/06/11 01:22:29;;;;;;;12.20;7.75;;;22.20;1.00;;;;;;5117397;28;20119;-70
2023/06/11 01:25:14;;;;;;;8.38;7.53;;;22.20;1.00;;;;;;5117338;28;20055;-70
2023/06/11 01:28:02;;;;;;;10.60;7.95;;;22.20;1.00;;;;;;5117963;28;20031;-70
2023/06/11 01:30:31;;;;;;;8.10;7.30;;;22.10;1.00;;;;;;5117225;28;20027;-70
2023/06/11 01:32:59;;;;;;;7.63;6.80;;;22.10;1.00;;;;;;5117969;28;20034;-69
2023/06/11 01:35:30;;;;;;;9.25;7.68;;;22.00;1.00;;;;;;5117261;28;20023;-69
2023/06/11 01:37:57;;;;;;;8.93;8.00;;;21.90;1.00;;;;;;5117217;28;20028;-69
2023/06/11 01:40:31;;;;;;;8.55;7.50;;;21.80;1.00;;;;;;5117092;28;20391;-70
2023/06/11 01:42:58;;;;;;;8.85;7.53;;;21.80;1.00;;;;;;5117015;28;20059;-70
2023/06/11 01:45:26;;;;;;;8.48;7.72;;;21.80;1.00;;;;;;5118071;28;20062;-70
2023/06/11 01:47:53;;;;;;;10.48;7.90;;;21.80;1.00;;;;;;5100034;28;20032;-69
2023/06/11 01:50:20;;;;;;;7.80;7.10;;;21.80;1.00;;;;;;5116829;28;20340;-70
2023/06/11 01:52:47;;;;;;;8.48;7.68;;;21.70;1.00;;;;;;5116854;28;20027;-69
2023/06/11 01:55:13;;;;;;;8.02;7.32;;;21.60;1.00;;;;;;5116879;28;20028;-69
2023/06/11 01:57:40;;;;;;;8.45;7.53;;;21.60;1.00;;;;;;5117316;28;20433;-70
2023/06/11 02:00:10;;;;;;;8.32;7.43;;;21.50;1.00;;;;;;5116979;28;20050;-70
2023/06/11 02:02:46;;;;;;;8.93;7.80;;;21.50;1.00;;;;;;5117139;28;20039;-70
2023/06/11 02:05:13;;;;;;;11.10;8.88;;;21.50;1.00;;;;;;5117082;28;20045;-69
2023/06/11 02:07:39;;;;;;;9.65;8.65;;;21.40;1.00;;;;;;5116473;28;20051;-70
2023/06/11 02:10:05;;;;;;;10.65;8.85;;;21.40;1.00;;;;;;5116784;28;20028;-69
2023/06/11 02:12:31;;;;;;;9.60;8.75;;;21.50;1.00;;;;;;5116734;28;20039;-70
2023/06/11 02:14:57;;;;;;;9.82;8.93;;;21.50;1.00;;;;;;5117544;28;20342;-69
2023/06/11 02:17:23;;;;;;;9.35;8.45;;;21.50;1.00;;;;;;5116660;28;20317;-69
2023/06/11 02:19:49;;;;;;;9.40;8.50;;;21.50;1.00;;;;;;5117184;28;20028;-70
2023/06/11 02:22:15;;;;;;;9.93;8.93;;;21.40;1.00;;;;;;5116671;28;20327;-70
2023/06/11 02:24:41;;;;;;;10.20;9.02;;;21.40;1.00;;;;;;5116620;28;20024;-70
2023/06/11 02:27:07;;;;;;;11.10;8.95;;;21.40;1.00;;;;;;5099566;28;20036;-70
2023/06/11 02:29:34;;;;;;;9.80;8.80;;;21.40;1.00;;;;;;5116419;28;20081;-69
2023/06/11 02:32:01;;;;;;;9.77;8.88;;;21.40;1.00;;;;;;5117361;28;20036;-69
2023/06/11 02:34:27;;;;;;;10.07;9.02;;;21.30;1.00;;;;;;5099440;28;20030;-69
2023/06/11 02:36:53;;;;;;;11.93;8.90;;;21.30;1.00;;;;;;5116377;28;20395;-70
2023/06/11 02:39:18;;;;;;;10.23;8.90;;;21.20;1.00;;;;;;5116390;28;20080;-70
2023/06/11 02:41:44;;;;;;;9.55;8.65;;;21.20;1.00;;;;;;5117188;28;20056;-70
2023/06/11 02:44:10;;;;;;;9.27;8.38;;;21.10;1.00;;;;;;5099361;28;20043;-69
2023/06/11 02:46:36;;;;;;;10.00;9.00;;;21.00;1.00;;;;;;5117033;28;20452;-70
2023/06/11 02:49:02;;;;;;;9.90;8.90;;;20.90;1.00;;;;;;5116228;28;20134;-69
2023/06/11 02:51:27;;;;;;;9.50;8.50;;;21.00;1.00;;;;;;5117011;28;20031;-70
2023/06/11 02:53:53;;;;;;;9.52;8.60;;;21.00;1.00;;;;;;5116866;28;20024;-69
2023/06/11 02:56:19;;;;;;;9.85;8.85;;;20.90;1.00;;;;;;5116326;28;20036;-70
2023/06/11 02:58:47;;;;;;;9.75;8.82;;;21.00;1.00;;;;;;5116271;28;20028;-69
2023/06/11 03:01:13;;;;;;;9.63;8.65;;;21.00;1.00;;;;;;5116124;28;20024;-70
2023/06/11 03:03:39;;;;;;;9.60;8.40;;;21.00;1.00;;;;;;5116318;28;20024;-70
2023/06/11 03:06:05;;;;;;;10.68;8.95;;;20.90;1.00;;;;;;5116042;28;20051;-70
2023/06/11 03:08:32;;;;;;;9.65;8.75;;;20.80;1.00;;;;;;5116081;28;20031;-70
2023/06/11 03:10:58;;;;;;;9.90;8.98;;;20.70;1.00;;;;;;5116820;28;20119;-70
2023/06/11 03:13:24;;;;;;;9.80;8.80;;;20.80;1.00;;;;;;5116825;28;20031;-71
2023/06/11 03:15:52;;;;;;;9.75;8.90;;;20.80;1.00;;;;;;5115983;28;20028;-70
2023/06/11 03:18:18;;;;;;;10.10;8.77;;;20.80;1.00;;;;;;5099312;28;20023;-70
2023/06/11 03:20:44;;;;;;;10.40;9.40;;;20.70;1.00;;;;;;5116922;28;20406;-70
2023/06/11 03:23:10;;;;;;;11.43;9.13;;;20.80;1.00;;;;;;5116379;28;20415;-70
2023/06/11 03:25:39;;;;;;;10.18;9.02;;;20.70;1.00;;;;;;5116965;28;20059;-70
2023/06/11 03:28:05;;;;;;;10.82;9.82;;;20.80;1.00;;;;;;5082165;28;20088;-70
2023/06/11 03:30:31;;;;;;;10.15;9.20;;;20.70;1.00;;;;;;5115911;28;20024;-70
2023/06/11 03:32:58;;;;;;;11.95;9.52;;;20.70;1.00;;;;;;5085883;28;20031;-70
2023/06/11 03:35:23;;;;;;;10.90;9.40;;;20.80;1.00;;;;;;5120303;28;20024;-70
2023/06/11 03:37:50;;;;;;;13.43;9.50;;;20.80;1.00;;;;;;5119475;28;20344;-70
2023/06/11 03:40:20;;;;;;;11.20;9.82;;;20.80;1.00;;;;;;5119573;28;20024;-70
2023/06/11 03:42:47;;;;;;;10.60;9.60;;;20.70;1.00;;;;;;5119381;28;20031;-70
2023/06/11 03:45:13;;;;;;;10.18;9.18;;;20.70;1.00;;;;;;5119315;28;20423;-70
2023/06/11 03:47:40;;;;;;;10.35;9.35;;;20.70;1.00;;;;;;5119119;28;20032;-70
2023/06/11 03:50:07;;;;;;;10.10;9.10;;;20.60;1.00;;;;;;5102236;28;20039;-70
2023/06/11 03:52:33;;;;;;;11.40;9.48;;;20.60;1.00;;;;;;5119140;28;20298;-71
2023/06/11 03:54:59;;;;;;;11.32;10.23;;;20.60;1.00;;;;;;5119454;28;20038;-71
2023/06/11 03:57:25;;;;;;;11.65;10.00;;;20.60;1.00;;;;;;5102093;28;20350;-71
2023/06/11 03:59:52;;;;;;;11.02;9.93;;;20.60;1.00;;;;;;5119107;28;20446;-70
2023/06/11 04:02:18;;;;;;;13.20;10.07;;;20.60;1.00;;;;;;5119774;27;20111;-70
2023/06/11 04:04:44;;;;;;;10.50;9.52;;;20.60;1.00;;;;;;5102177;28;20031;-70
2023/06/11 04:07:10;;;;;;;13.27;10.90;;;20.60;1.00;;;;;;5118586;28;20056;-70
2023/06/11 04:09:37;;;;;;;13.65;11.13;;;20.70;1.00;;;;;;5118876;28;20042;-69
2023/06/11 04:12:05;;;;;;;12.18;11.00;;;20.80;1.00;;;;;;5102171;28;20046;-69
2023/06/11 04:14:32;;;;;;;11.50;10.40;;;20.80;1.00;;;;;;5102370;28;20113;-69
2023/06/11 04:16:58;;;;;;;11.73;10.57;;;20.70;1.00;;;;;;5118744;28;20024;-69
2023/06/11 04:19:24;;;;;;;12.00;10.80;;;20.70;1.00;;;;;;5118739;28;20023;-69
2023/06/11 04:21:50;;;;;;;12.50;11.40;;;20.70;1.00;;;;;;5118659;28;20433;-69
2023/06/11 04:24:15;;;;;;;12.32;10.70;;;20.80;1.00;;;;;;5118681;28;20090;-69
2023/06/11 04:26:43;;;;;;;13.45;10.55;;;20.80;1.00;;;;;;5119330;28;20027;-69
2023/06/11 04:29:09;;;;;;;13.13;10.18;;;20.80;1.00;;;;;;5101541;28;20059;-69
2023/06/11 04:31:35;;;;;;;10.68;9.55;;;20.90;1.00;;;;;;5118518;28;20328;-70
2023/06/11 04:34:02;;;;;;;11.07;9.93;;;20.90;1.00;;;;;;5119200;28;20039;-70
2023/06/11 04:36:30;;;;;;;11.40;10.30;;;20.90;1.00;;;;;;5118410;28;20084;-70
2023/06/11 04:38:56;;;;;;;15.05;11.30;;;20.90;1.00;;;;;;5101446;28;20467;-70
2023/06/11 04:41:26;;;;;;;14.23;11.10;;;20.90;1.00;;;;;;5118320;28;20094;-70
2023/06/11 04:43:52;;;;;;;12.27;10.75;;;21.00;1.00;;;;;;5101174;28;20038;-71
2023/06/11 04:46:18;;;;;;;12.02;10.55;;;21.10;1.00;;;;;;5101375;28;20043;-70
2023/06/11 04:48:50;;;;;;;11.85;10.35;;;21.10;1.00;;;;;;5118039;28;20036;-70
2023/06/11 04:51:17;;;;;;;12.10;10.90;;;21.10;1.00;;;;;;5101862;28;20028;-71
2023/06/11 04:53:45;;;;;;;13.15;10.80;;;21.20;1.00;;;;;;5118083;28;20020;-70
2023/06/11 04:56:14;;;;;;;12.55;11.38;;;21.10;1.00;;;;;;5084902;28;20123;-70
2023/06/11 04:58:41;;;;;;;11.68;10.55;;;21.10;1.00;;;;;;5117764;28;20036;-70
2023/06/11 05:01:08;;;;;;;11.10;10.13;;;21.20;1.00;;;;;;5118564;28;20038;-71
2023/06/11 05:03:37;;;;;;;10.15;9.35;;;21.20;1.00;;;;;;5117709;28;20395;-70
2023/06/11 05:06:05;;;;;;;11.13;10.02;;;21.30;1.00;;;;;;5118657;28;20071;-71
2023/06/11 05:08:33;;;;;;;11.40;10.10;;;21.40;1.00;;;;;;5118529;28;20106;-71
2023/06/11 05:11:00;;;;;;;11.40;10.25;;;21.40;1.00;;;;;;5100991;28;20360;-71
2023/06/11 05:13:30;;;;;;;13.15;10.05;;;21.60;1.00;;;;;;5117494;28;20032;-71
2023/06/11 05:15:59;;;;;;;11.48;10.30;;;21.70;1.00;;;;;;5085124;28;20166;-71
2023/06/11 05:18:26;;;;;;;11.00;9.93;;;21.80;1.00;;;;;;5117391;28;20458;-71
2023/06/11 05:20:54;;;;;;;12.25;11.15;;;21.90;1.00;;;;;;5117384;28;20426;-70
2023/06/11 05:23:28;;;;;;;13.50;10.65;;;21.90;1.00;;;;;;5118380;28;20418;-70
2023/06/11 05:25:58;;;;;;;11.48;10.30;;;21.90;1.00;;;;;;5117478;28;20334;-70
2023/06/11 05:28:24;;;;;;;11.02;9.98;;;21.90;1.00;;;;;;5117485;28;20469;-70
2023/06/11 05:30:52;;;;;;;11.82;10.60;;;22.00;1.00;;;;;;5100645;28;20084;-70
2023/06/11 05:33:17;;;;;;;11.80;10.70;;;22.00;1.00;;;;;;5118041;28;20024;-70
2023/06/11 05:35:47;;;;;;;12.10;10.23;;;22.10;1.00;;;;;;5117260;28;20028;-70
2023/06/11 05:38:13;;;;;;;13.98;11.30;;;22.10;1.00;;;;;;5118197;28;20087;-70
2023/06/11 05:40:41;;;;;;;12.35;10.55;;;22.20;1.00;;;;;;5117210;28;20047;-71
2023/06/11 05:43:07;;;;;;;12.27;11.18;;;22.20;1.00;;;;;;5117925;28;20096;-70
2023/06/11 05:45:35;;;;;;;12.15;10.82;;;22.30;1.00;;;;;;5117511;28;20436;-70
2023/06/11 05:48:03;;;;;;;12.85;10.30;;;22.40;1.00;;;;;;5117010;28;20462;-70
2023/06/11 05:50:32;;;;;;;11.15;9.70;;;22.40;1.00;;;;;;5117078;28;20406;-70
2023/06/11 05:52:58;;;;;;;12.27;11.07;;;22.50;1.00;;;;;;5117742;28;20069;-69
2023/06/11 05:55:24;;;;;;;11.10;9.90;;;22.50;1.00;;;;;;5099599;28;20027;-70
2023/06/11 05:57:49;;;;;;;10.57;9.48;;;22.60;1.00;;;;;;5117975;28;20071;-70
2023/06/11 06:00:17;;;;;;;10.48;9.57;;;22.60;1.00;;;;;;5117049;28;20035;-70
2023/06/11 06:02:48;;;;;;;11.57;10.38;;;22.70;1.00;;;;;;5116887;28;20078;-71
2023/06/11 06:05:21;;;;;;;11.70;10.40;;;22.80;1.00;;;;;;5117294;28;20039;-71
2023/06/11 06:07:47;;;;;;;11.98;10.43;;;22.90;1.00;;;;;;5117510;28;20043;-70
2023/06/11 06:10:14;;;;;;;11.25;9.93;;;22.90;1.00;;;;;;5117011;28;20042;-70
2023/06/11 06:12:40;;;;;;;11.10;9.77;;;22.90;1.00;;;;;;5117708;28;20124;-70
2023/06/11 06:15:08;;;;;;;11.05;9.75;;;23.00;1.00;;;;;;5116867;28;20019;-70
2023/06/11 06:17:35;;;;;;;10.60;9.43;;;23.10;1.00;;;;;;5116853;28;20036;-70
2023/06/11 06:20:00;;;;;;;10.40;9.40;;;23.20;1.00;;;;;;5100143;28;20104;-70
2023/06/11 06:22:26;;;;;;;12.38;9.35;;;23.30;1.00;;;;;;5116899;28;20031;-70
2023/06/11 06:24:53;;;;;;;10.60;9.65;;;23.50;1.00;;;;;;5116904;28;20172;-71
2023/06/11 06:27:19;;;;;;;10.45;9.45;;;23.50;1.00;;;;;;5116654;28;20085;-70
2023/06/11 06:29:45;;;;;;;11.55;9.80;;;23.60;1.00;;;;;;5116666;28;20024;-70
2023/06/11 06:32:11;;;;;;;10.05;9.02;;;23.70;1.00;;;;;;5116506;28;20031;-70
2023/06/11 06:34:37;;;;;;;11.32;9.45;;;23.70;1.00;;;;;;5116127;28;20114;-70
2023/06/11 06:37:03;;;;;;;9.95;9.15;;;23.80;1.00;;;;;;5115998;28;20020;-69
2023/06/11 06:39:29;;;;;;;10.98;9.88;;;23.90;1.00;;;;;;5099393;28;20107;-70
2023/06/11 06:41:57;;;;;;;10.10;9.00;;;23.90;1.00;;;;;;5116304;28;20326;-70
2023/06/11 06:44:34;;;;;;;9.55;8.60;;;23.90;1.00;;;;;;5116405;28;20307;-71
2023/06/11 06:47:01;;;;;;;9.68;8.68;;;24.00;1.00;;;;;;5116444;28;20031;-69
2023/06/11 06:49:27;;;;;;;9.48;8.68;;;24.20;99.90;;;;;;5099305;28;20028;-70
2023/06/11 06:51:52;;;;;;;9.15;8.38;;;24.40;99.90;;;;;;5117071;28;20077;-70
2023/06/11 06:54:18;;;;;;;9.20;8.40;;;24.40;99.90;;;;;;5116509;28;20036;-70
2023/06/11 06:56:44;;;;;;;11.95;8.70;;;24.40;99.90;;;;;;5116333;28;20031;-70
2023/06/11 06:59:11;;;;;;;10.05;9.25;;;24.60;99.90;;;;;;5116502;28;20036;-70
2023/06/11 07:01:38;;;;;;;9.35;8.48;;;24.70;99.90;;;;;;5116642;28;20330;-71
2023/06/11 07:04:06;;;;;;;9.07;8.18;;;24.70;99.90;;;;;;5099734;28;20366;-70
2023/06/11 07:06:32;;;;;;;9.32;8.35;;;24.70;99.90;;;;;;5100684;28;20083;-70
2023/06/11 07:08:58;;;;;;;7.72;7.03;;;24.70;99.90;;;;;;5120276;28;20108;-70
2023/06/11 07:11:24;;;;;;;8.15;7.45;;;24.70;93.70;;;;;;5120245;28;20062;-70
2023/06/11 07:13:50;;;;;;;7.88;7.28;;;24.90;99.90;;;;;;5103341;28;20108;-71
2023/06/11 07:16:16;;;;;;;9.82;8.02;;;25.00;99.90;;;;;;5120129;28;20379;-70
2023/06/11 07:18:53;;;;;;;8.25;7.55;;;25.10;99.90;;;;;;5120493;28;20046;-70
2023/06/11 07:21:19;;;;;;;8.32;7.53;;;25.20;99.90;;;;;;5121444;28;20028;-72
2023/06/11 07:23:45;;;;;;;10.15;8.45;;;25.40;99.90;;;;;;5120139;28;20028;-71
2023/06/11 07:26:14;;;;;;;7.72;7.07;;;25.50;1.00;;;;;;5103223;28;20145;-71
2023/06/11 07:28:40;;;;;;;7.97;7.38;;;25.50;1.00;;;;;;5120138;28;20058;-70
2023/06/11 07:31:07;;;;;;;8.73;7.82;;;25.60;1.00;;;;;;5121229;28;20016;-70
2023/06/11 07:33:33;;;;;;;8.48;7.70;;;25.70;1.00;;;;;;5119879;28;20027;-70
2023/06/11 07:35:59;;;;;;;9.52;7.82;;;25.80;99.90;;;;;;5119753;28;20028;-68
2023/06/11 07:38:25;;;;;;;8.20;7.50;;;25.80;99.90;;;;;;5102427;28;20034;-69
2023/06/11 07:40:52;;;;;;;7.90;7.20;;;25.80;1.00;;;;;;5103375;28;20032;-69
2023/06/11 07:43:19;;;;;;;8.32;7.68;;;25.80;99.90;;;;;;5119438;28;20352;-69
2023/06/11 07:45:45;;;;;;;8.13;7.53;;;26.10;99.90;;;;;;5119349;28;20040;-71
2023/06/11 07:48:11;;;;;;;8.35;7.55;;;26.10;45.00;;;;;;5119473;28;20035;-70
2023/06/11 07:50:37;;;;;;;8.20;7.40;;;26.30;1.00;;;;;;5119275;28;20039;-69
2023/06/11 07:53:03;;;;;;;8.45;7.65;;;26.30;1.00;;;;;;5119448;28;20027;-69
2023/06/11 07:55:30;;;;;;;8.38;7.68;;;26.40;99.90;;;;;;5119233;28;20027;-70
2023/06/11 07:57:56;;;;;;;9.15;7.97;;;26.40;1.00;;;;;;5119263;28;20035;-71
2023/06/11 08:00:22;;;;;;;8.32;7.72;;;26.40;1.00;;;;;;5119981;28;20087;-72
2023/06/11 08:02:48;;;;;;;7.63;6.93;;;26.40;1.00;;;;;;5102194;28;20295;-73
2023/06/11 08:05:19;;;;;;;8.57;7.78;;;26.50;99.90;;;;;;5119225;28;20027;-73
2023/06/11 08:07:47;;;;;;;8.80;8.02;;;26.50;24.00;;;;;;5119866;28;20374;-74
2023/06/11 08:10:13;;;;;;;8.55;7.55;;;26.30;1.00;;;;;;5120334;28;20038;-70
2023/06/11 08:12:39;;;;;;;9.23;8.52;;;26.20;1.00;;;;;;5118834;28;20034;-71
2023/06/11 08:15:05;;;;;;;8.25;7.45;;;26.40;99.90;;;;;;5119855;28;20028;-71
2023/06/11 08:17:31;;;;;;;9.70;8.18;;;26.50;99.90;;;;;;5119072;28;20036;-69
2023/06/11 08:19:57;;;;;;;8.38;7.57;;;26.40;99.90;;;;;;5103113;28;20084;-71
2023/06/11 08:22:23;;;;;;;8.55;7.85;;;26.40;37.10;;;;;;5102021;28;20036;-69
2023/06/11 08:24:49;;;;;;;8.02;7.43;;;26.40;99.90;;;;;;5119643;28;20047;-70
2023/06/11 08:27:15;;;;;;;8.50;7.75;;;26.60;99.90;;;;;;5119250;28;20119;-70
2023/06/11 08:29:41;;;;;;;8.18;7.47;;;26.60;1.00;;;;;;5084916;28;20115;-70
2023/06/11 08:32:07;;;;;;;8.68;7.88;;;26.50;99.90;;;;;;5119409;28;20032;-73
2023/06/11 08:34:33;;;;;;;8.23;7.43;;;26.70;99.90;;;;;;5119330;28;20366;-71
2023/06/11 08:37:00;;;;;;;8.60;7.68;;;27.00;1.00;;;;;;5118496;28;20051;-71
2023/06/11 08:39:26;;;;;;;8.60;7.50;;;27.10;1.00;;;;;;5119409;28;20032;-69
2023/06/11 08:41:52;;;;;;;8.13;7.38;;;27.10;99.90;;;;;;5119661;28;20031;-71
2023/06/11 08:44:18;;;;;;;7.97;7.18;;;27.20;99.90;;;;;;5118260;28;20027;-71
2023/06/11 08:46:44;;;;;;;8.00;7.30;;;27.20;1.00;;;;;;5119139;28;20028;-70
2023/06/11 08:49:22;;;;;;;7.38;6.70;;;27.10;99.90;;;;;;5118864;28;20031;-70
2023/06/11 08:51:48;;;;;;;7.47;6.78;;;27.20;99.90;;;;;;5118546;28;20039;-72
2023/06/11 08:54:15;;;;;;;7.28;6.68;;;27.30;1.00;;;;;;5118994;28;20412;-70
2023/06/11 08:56:42;;;;;;;8.13;7.20;;;27.10;1.00;;;;;;5118904;28;20020;-70
2023/06/11 08:59:08;;;;;;;7.95;6.60;;;27.00;1.00;;;;;;5118179;28;20039;-72
2023/06/11 09:01:34;;;;;;;7.82;7.03;;;27.00;1.00;;;;;;5118072;28;20035;-72
2023/06/11 09:04:00;;;;;;;7.22;6.72;;;27.20;1.00;;;;;;5118040;28;20323;-72
2023/06/11 09:06:27;;;;;;;8.10;7.25;;;27.50;99.90;;;;;;5118149;28;20043;-70
2023/06/11 09:08:58;;;;;;;7.20;6.60;;;27.80;1.00;;;;;;5118488;28;20136;-70
2023/06/11 09:11:30;;;;;;;6.72;6.22;;;27.90;99.90;;;;;;5117950;28;20031;-71
2023/06/11 09:13:56;;;;;;;7.25;6.35;;;28.10;99.90;;;;;;5118624;28;20335;-70
2023/06/11 09:16:22;;;;;;;6.32;5.82;;;28.20;99.90;;;;;;5119096;28;20035;-72
2023/06/11 09:18:47;;;;;;;6.97;6.30;;;28.40;1.00;;;;;;5117745;28;20375;-70
2023/06/11 09:21:13;;;;;;;6.65;6.05;;;28.40;99.90;;;;;;5118670;28;20390;-71
2023/06/11 09:23:39;;;;;;;6.15;5.65;;;28.30;1.00;;;;;;5118280;28;20031;-71
2023/06/11 09:26:05;;;;;;;6.93;6.32;;;28.20;1.00;;;;;;5118336;28;20035;-70
2023/06/11 09:28:35;;;;;;;6.53;5.93;;;28.20;1.00;;;;;;5117614;28;20046;-70
2023/06/11 09:31:03;;;;;;;6.20;5.80;;;28.40;1.00;;;;;;5118366;28;20111;-70
2023/06/11 09:33:31;;;;;;;7.13;6.28;;;28.40;99.90;;;;;;5118556;28;20169;-70
2023/06/11 09:35:58;;;;;;;7.03;6.43;;;28.30;1.00;;;;;;5118784;28;20114;-70
2023/06/11 09:38:24;;;;;;;8.25;6.20;;;28.50;1.00;;;;;;5118286;28;20032;-70
2023/06/11 09:40:53;;;;;;;6.13;5.72;;;28.80;1.00;;;;;;5118220;28;20300;-70
2023/06/11 09:43:23;;;;;;;6.55;6.05;;;29.00;1.00;;;;;;5117447;28;20028;-70
2023/06/11 09:45:52;;;;;;;6.47;5.95;;;29.10;99.90;;;;;;5117747;28;20115;-70
2023/06/11 09:48:22;;;;;;;6.50;5.93;;;29.10;99.90;;;;;;5117993;28;20024;-70
2023/06/11 09:50:50;;;;;;;6.15;5.65;;;29.20;1.00;;;;;;5118193;28;20023;-71
2023/06/11 09:53:20;;;;;;;5.50;5.10;;;29.30;1.00;;;;;;5117240;28;20088;-71
2023/06/11 09:55:50;;;;;;;5.25;4.75;;;29.30;99.90;;;;;;5117454;28;20047;-71
2023/06/11 09:58:18;;;;;;;5.40;5.00;;;29.50;99.90;;;;;;5117882;28;20050;-69
2023/06/11 10:00:48;;;;;;;7.20;5.25;;;29.60;1.00;;;;;;5118321;28;20039;-69
2023/06/11 10:03:13;;;;;;;5.68;5.10;;;29.60;1.00;;;;;;5099998;28;20035;-71
